sensor_id;sensor_type;location;lat;lon;timestamp;pressure;altitude;pressure_sealevel;temperature;humidity
44044;BME280;29709;52.396;16.796;2024-03-17T00:00:23;101988.75;;;6.68;76.80
44044;BME280;29709;52.396;16.796;2024-03-17T00:03:36;101994.41;;;6.65;76.88
44044;BME280;29709;52.396;16.796;2024-03-17T00:06:50;101999.59;;;6.57;76.45
44044;BME280;29709;52.396;16.796;2024-03-17T00:10:03;101990.74;;;6.53;76.78
44044;BME280;29709;52.396;16.796;2024-03-17T00:13:17;102002.34;;;6.57;76.35
44044;BME280;29709;52.396;16.796;2024-03-17T00:16:30;101999.68;;;6.55;75.92
44044;BME280;29709;52.396;16.796;2024-03-17T00:19:44;102006.72;;;6.47;75.60
44044;BME280;29709;52.396;16.796;2024-03-17T00:22:57;102003.13;;;6.46;75.79
44044;BME280;29709;52.396;16.796;2024-03-17T00:26:10;102006.72;;;6.47;76.40
44044;BME280;29709;52.396;16.796;2024-03-17T00:29:24;102003.20;;;6.45;75.49
44044;BME280;29709;52.396;16.796;2024-03-17T00:32:37;102007.04;;;6.42;76.53
44044;BME280;29709;52.396;16.796;2024-03-17T00:35:51;102007.51;;;6.36;76.36
44044;BME280;29709;52.396;16.796;2024-03-17T00:39:04;102014.72;;;6.37;76.53
44044;BME280;29709;52.396;16.796;2024-03-17T00:42:17;102014.48;;;6.40;76.71
44044;BME280;29709;52.396;16.796;2024-03-17T00:45:31;102022.32;;;6.45;76.50
44044;BME280;29709;52.396;16.796;2024-03-17T00:48:49;102024.29;;;6.43;76.51
44044;BME280;29709;52.396;16.796;2024-03-17T00:52:02;102019.51;;;6.46;76.35
44044;BME280;29709;52.396;16.796;2024-03-17T00:55:16;102021.45;;;6.44;75.97
44044;BME280;29709;52.396;16.796;2024-03-17T00:58:30;102023.42;;;6.42;75.99
44044;BME280;29709;52.396;16.796;2024-03-17T01:01:43;102025.92;;;6.45;75.84
44044;BME280;29709;52.396;16.796;2024-03-17T01:04:57;102020.05;;;6.39;75.48
44044;BME280;29709;52.396;16.796;2024-03-17T01:08:11;102027.14;;;6.41;74.43
44044;BME280;29709;52.396;16.796;2024-03-17T01:11:24;102023.31;;;6.44;74.45
44044;BME280;29709;52.396;16.796;2024-03-17T01:14:38;102011.20;;;6.48;73.60
44044;BME280;29709;52.396;16.796;2024-03-17T01:17:51;102019.51;;;6.46;73.19
44044;BME280;29709;52.396;16.796;2024-03-17T01:21:04;102023.40;;;6.55;73.23
44044;BME280;29709;52.396;16.796;2024-03-17T01:24:18;102028.30;;;6.62;72.92
44044;BME280;29709;52.396;16.796;2024-03-17T01:27:32;102023.83;;;6.61;72.22
44044;BME280;29709;52.396;16.796;2024-03-17T01:30:45;102019.23;;;6.62;72.19
44044;BME280;29709;52.396;16.796;2024-03-17T01:34:00;102016.39;;;6.63;71.92
44044;BME280;29709;52.396;16.796;2024-03-17T01:37:14;102010.05;;;6.63;71.78
44044;BME280;29709;52.396;16.796;2024-03-17T01:40:27;102021.74;;;6.65;72.15
44044;BME280;29709;52.396;16.796;2024-03-17T01:43:40;102019.67;;;6.69;72.13
44044;BME280;29709;52.396;16.796;2024-03-17T01:46:55;102027.38;;;6.75;72.61
44044;BME280;29709;52.396;16.796;2024-03-17T01:50:09;102009.89;;;6.77;72.91
44044;BME280;29709;52.396;16.796;2024-03-17T01:53:26;102002.11;;;6.84;72.80
44044;BME280;29709;52.396;16.796;2024-03-17T01:56:40;102016.66;;;6.84;72.68
44044;BME280;29709;52.396;16.796;2024-03-17T01:59:54;102015.46;;;6.88;72.80
44044;BME280;29709;52.396;16.796;2024-03-17T02:03:09;102008.33;;;6.86;72.40
44044;BME280;29709;52.396;16.796;2024-03-17T02:06:22;102009.02;;;6.77;72.54
44044;BME280;29709;52.396;16.796;2024-03-17T02:09:37;102002.91;;;6.73;72.42
44044;BME280;29709;52.396;16.796;2024-03-17T02:12:50;102017.81;;;6.69;72.76
44044;BME280;29709;52.396;16.796;2024-03-17T02:16:04;102014.64;;;6.62;71.96
44044;BME280;29709;52.396;16.796;2024-03-17T02:19:17;102003.20;;;6.57;72.37
44044;BME280;29709;52.396;16.796;2024-03-17T02:22:30;102011.72;;;6.53;71.72
44044;BME280;29709;52.396;16.796;2024-03-17T02:25:44;102021.02;;;6.50;71.38
44044;BME280;29709;52.396;16.796;2024-03-17T02:29:00;102018.72;;;6.44;70.83
44044;BME280;29709;52.396;16.796;2024-03-17T02:32:14;102020.26;;;6.48;70.82
44044;BME280;29709;52.396;16.796;2024-03-17T02:35:27;102019.39;;;6.48;70.64
44044;BME280;29709;52.396;16.796;2024-03-17T02:38:41;102002.13;;;6.47;70.21
44044;BME280;29709;52.396;16.796;2024-03-17T02:42:10;102008.98;;;6.53;71.00
44044;BME280;29709;52.396;16.796;2024-03-17T02:45:23;102000.55;;;6.56;70.22
44044;BME280;29709;52.396;16.796;2024-03-17T02:48:36;101998.06;;;6.53;69.67
44044;BME280;29709;52.396;16.796;2024-03-17T02:51:59;101986.49;;;6.49;69.96
44044;BME280;29709;52.396;16.796;2024-03-17T02:55:12;101990.42;;;6.45;69.74
44044;BME280;29709;52.396;16.796;2024-03-17T02:58:25;101985.95;;;6.44;69.60
44044;BME280;29709;52.396;16.796;2024-03-17T03:01:38;101985.84;;;6.46;69.49
44044;BME280;29709;52.396;16.796;2024-03-17T03:04:53;101984.87;;;6.47;69.50
44044;BME280;29709;52.396;16.796;2024-03-17T03:08:06;101985.75;;;6.47;69.04
44044;BME280;29709;52.396;16.796;2024-03-17T03:11:19;101986.49;;;6.49;69.66
44044;BME280;29709;52.396;16.796;2024-03-17T03:14:33;101993.07;;;6.47;68.81
44044;BME280;29709;52.396;16.796;2024-03-17T03:17:46;101994.14;;;6.44;69.14
44044;BME280;29709;52.396;16.796;2024-03-17T03:21:00;101996.00;;;6.44;69.43
44044;BME280;29709;52.396;16.796;2024-03-17T03:24:14;101996.67;;;6.47;69.11
44044;BME280;29709;52.396;16.796;2024-03-17T03:27:27;101996.00;;;6.44;68.40
44044;BME280;29709;52.396;16.796;2024-03-17T03:30:40;101990.90;;;6.39;68.75
44044;BME280;29709;52.396;16.796;2024-03-17T03:33:54;102001.05;;;6.37;68.41
44044;BME280;29709;52.396;16.796;2024-03-17T03:37:09;101992.08;;;6.35;68.39
44044;BME280;29709;52.396;16.796;2024-03-17T03:40:26;101991.12;;;6.36;68.43
44044;BME280;29709;52.396;16.796;2024-03-17T03:43:40;101993.06;;;6.34;67.59
44044;BME280;29709;52.396;16.796;2024-03-17T03:46:54;101982.27;;;6.32;67.78
44044;BME280;29709;52.396;16.796;2024-03-17T03:50:21;101994.29;;;6.30;68.27
44044;BME280;29709;52.396;16.796;2024-03-17T03:53:36;101987.73;;;6.32;67.65
44044;BME280;29709;52.396;16.796;2024-03-17T03:56:49;101989.47;;;6.33;67.80
44044;BME280;29709;52.396;16.796;2024-03-17T04:00:04;101990.45;;;6.32;67.54
44044;BME280;29709;52.396;16.796;2024-03-17T04:03:25;101984.24;;;6.30;67.29
44044;BME280;29709;52.396;16.796;2024-03-17T04:06:40;101999.40;;;6.34;67.62
44044;BME280;29709;52.396;16.796;2024-03-17T04:09:54;102000.40;;;6.33;67.63
44044;BME280;29709;52.396;16.796;2024-03-17T04:13:07;101998.53;;;6.34;67.73
44044;BME280;29709;52.396;16.796;2024-03-17T04:16:20;102003.48;;;6.29;67.63
44044;BME280;29709;52.396;16.796;2024-03-17T04:19:34;101999.98;;;6.27;67.68
44044;BME280;29709;52.396;16.796;2024-03-17T04:22:47;101988.19;;;6.26;67.54
44044;BME280;29709;52.396;16.796;2024-03-17T04:26:01;102001.61;;;6.29;67.79
44044;BME280;29709;52.396;16.796;2024-03-17T04:29:16;102004.98;;;6.33;68.14
44044;BME280;29709;52.396;16.796;2024-03-17T04:32:29;102010.00;;;6.39;67.76
44044;BME280;29709;52.396;16.796;2024-03-17T04:35:44;102000.07;;;6.38;67.89
44044;BME280;29709;52.396;16.796;2024-03-17T04:38:57;101997.66;;;6.33;67.75
44044;BME280;29709;52.396;16.796;2024-03-17T04:42:13;102001.38;;;6.32;68.12
44044;BME280;29709;52.396;16.796;2024-03-17T04:45:32;102002.25;;;6.33;68.00
44044;BME280;29709;52.396;16.796;2024-03-17T04:48:46;101994.81;;;6.35;67.77
44044;BME280;29709;52.396;16.796;2024-03-17T04:51:59;101995.80;;;6.34;67.55
44044;BME280;29709;52.396;16.796;2024-03-17T04:55:12;102001.94;;;6.38;68.09
44044;BME280;29709;52.396;16.796;2024-03-17T04:58:26;102008.27;;;6.38;67.48
44044;BME280;29709;52.396;16.796;2024-03-17T05:01:39;102010.45;;;6.33;67.67
44044;BME280;29709;52.396;16.796;2024-03-17T05:04:53;102007.59;;;6.34;67.29
44044;BME280;29709;52.396;16.796;2024-03-17T05:08:06;102019.84;;;6.29;67.82
44044;BME280;29709;52.396;16.796;2024-03-17T05:11:19;102017.65;;;6.34;67.92
44044;BME280;29709;52.396;16.796;2024-03-17T05:14:32;102021.16;;;6.36;68.01
44044;BME280;29709;52.396;16.796;2024-03-17T05:17:46;102019.62;;;6.32;68.06
44044;BME280;29709;52.396;16.796;2024-03-17T05:21:01;102022.23;;;6.33;68.08
44044;BME280;29709;52.396;16.796;2024-03-17T05:24:14;102019.39;;;6.35;68.19
44044;BME280;29709;52.396;16.796;2024-03-17T05:27:28;102013.49;;;6.41;68.13
44044;BME280;29709;52.396;16.796;2024-03-17T05:30:41;102028.02;;;6.42;67.33
44044;BME280;29709;52.396;16.796;2024-03-17T05:33:55;102042.55;;;6.42;67.82
44044;BME280;29709;52.396;16.796;2024-03-17T05:37:08;102039.80;;;6.42;67.84
44044;BME280;29709;52.396;16.796;2024-03-17T05:40:21;102041.90;;;6.39;67.69
44044;BME280;29709;52.396;16.796;2024-03-17T05:43:37;102049.63;;;6.45;67.74
44044;BME280;29709;52.396;16.796;2024-03-17T05:46:50;102055.88;;;6.47;67.54
44044;BME280;29709;52.396;16.796;2024-03-17T05:50:09;102063.60;;;6.53;67.65
44044;BME280;29709;52.396;16.796;2024-03-17T05:53:23;102068.76;;;6.57;67.47
44044;BME280;29709;52.396;16.796;2024-03-17T05:56:39;102066.34;;;6.53;67.81
44044;BME280;29709;52.396;16.796;2024-03-17T05:59:52;102072.25;;;6.59;67.71
44044;BME280;29709;52.396;16.796;2024-03-17T06:03:06;102081.43;;;6.58;66.97
44044;BME280;29709;52.396;16.796;2024-03-17T06:06:19;102082.38;;;6.70;67.31
44044;BME280;29709;52.396;16.796;2024-03-17T06:09:33;102087.51;;;6.75;67.97
44044;BME280;29709;52.396;16.796;2024-03-17T06:12:46;102091.20;;;6.86;67.77
44044;BME280;29709;52.396;16.796;2024-03-17T06:16:02;102095.23;;;6.93;67.33
44044;BME280;29709;52.396;16.796;2024-03-17T06:19:15;102092.15;;;6.98;67.63
44044;BME280;29709;52.396;16.796;2024-03-17T06:22:29;102087.34;;;7.02;67.59
44044;BME280;29709;52.396;16.796;2024-03-17T06:25:43;102092.69;;;7.03;67.48
44044;BME280;29709;52.396;16.796;2024-03-17T06:28:57;102092.24;;;7.09;67.40
44044;BME280;29709;52.396;16.796;2024-03-17T06:32:10;102094.63;;;7.14;67.26
44044;BME280;29709;52.396;16.796;2024-03-17T06:35:23;102099.59;;;7.33;67.07
44044;BME280;29709;52.396;16.796;2024-03-17T06:38:39;102104.01;;;7.46;66.71
44044;BME280;29709;52.396;16.796;2024-03-17T06:41:53;102098.66;;;7.45;66.46
44044;BME280;29709;52.396;16.796;2024-03-17T06:45:07;102102.95;;;7.36;66.82
44044;BME280;29709;52.396;16.796;2024-03-17T06:48:22;102111.58;;;7.43;67.22
44044;BME280;29709;52.396;16.796;2024-03-17T06:51:35;102110.35;;;7.47;66.65
44044;BME280;29709;52.396;16.796;2024-03-17T06:54:49;102110.02;;;7.51;66.61
44044;BME280;29709;52.396;16.796;2024-03-17T06:58:05;102113.80;;;7.62;66.97
44044;BME280;29709;52.396;16.796;2024-03-17T07:01:19;102111.15;;;7.60;66.64
44044;BME280;29709;52.396;16.796;2024-03-17T07:04:32;102113.06;;;7.71;66.73
44044;BME280;29709;52.396;16.796;2024-03-17T07:07:48;102109.20;;;7.62;66.45
44044;BME280;29709;52.396;16.796;2024-03-17T07:11:04;102121.95;;;7.50;66.14
44044;BME280;29709;52.396;16.796;2024-03-17T07:14:18;102120.54;;;7.45;66.53
44044;BME280;29709;52.396;16.796;2024-03-17T07:17:31;102117.56;;;7.48;66.98
44044;BME280;29709;52.396;16.796;2024-03-17T07:20:45;102136.95;;;7.45;67.18
44044;BME280;29709;52.396;16.796;2024-03-17T07:24:00;102145.61;;;7.39;68.27
44044;BME280;29709;52.396;16.796;2024-03-17T07:27:17;102152.98;;;7.26;68.50
44044;BME280;29709;52.396;16.796;2024-03-17T07:30:30;102156.88;;;7.10;69.62
44044;BME280;29709;52.396;16.796;2024-03-17T07:33:43;102163.53;;;7.06;69.87
44044;BME280;29709;52.396;16.796;2024-03-17T07:36:57;102169.88;;;7.07;70.28
44044;BME280;29709;52.396;16.796;2024-03-17T07:40:13;102178.19;;;7.05;70.71
44044;BME280;29709;52.396;16.796;2024-03-17T07:43:30;102176.64;;;7.14;71.32
44044;BME280;29709;52.396;16.796;2024-03-17T07:46:44;102173.47;;;7.20;70.85
44044;BME280;29709;52.396;16.796;2024-03-17T07:49:57;102184.37;;;7.33;69.83
44044;BME280;29709;52.396;16.796;2024-03-17T07:53:18;102185.44;;;7.43;67.11
44044;BME280;29709;52.396;16.796;2024-03-17T07:56:31;102183.09;;;7.49;64.29
44044;BME280;29709;52.396;16.796;2024-03-17T07:59:44;102186.50;;;7.53;62.66
44044;BME280;29709;52.396;16.796;2024-03-17T08:02:59;102177.17;;;7.56;60.16
44044;BME280;29709;52.396;16.796;2024-03-17T08:06:12;102185.02;;;7.60;60.98
44044;BME280;29709;52.396;16.796;2024-03-17T08:09:26;102186.68;;;7.63;59.08
44044;BME280;29709;52.396;16.796;2024-03-17T08:12:41;102186.01;;;7.59;59.61
44044;BME280;29709;52.396;16.796;2024-03-17T08:15:59;102184.28;;;7.58;59.23
44044;BME280;29709;52.396;16.796;2024-03-17T08:19:12;102185.95;;;7.48;58.41
44044;BME280;29709;52.396;16.796;2024-03-17T08:22:25;102182.70;;;7.43;58.11
44044;BME280;29709;52.396;16.796;2024-03-17T08:25:39;102177.54;;;7.51;59.01
44044;BME280;29709;52.396;16.796;2024-03-17T08:28:52;102186.07;;;7.46;58.66
44044;BME280;29709;52.396;16.796;2024-03-17T08:32:06;102186.26;;;7.56;58.77
44044;BME280;29709;52.396;16.796;2024-03-17T08:35:21;102191.48;;;7.59;55.95
44044;BME280;29709;52.396;16.796;2024-03-17T08:38:35;102195.95;;;7.73;56.95
44044;BME280;29709;52.396;16.796;2024-03-17T08:41:48;102191.73;;;7.80;55.83
44044;BME280;29709;52.396;16.796;2024-03-17T08:45:03;102191.28;;;7.86;56.38
44044;BME280;29709;52.396;16.796;2024-03-17T08:48:16;102184.61;;;8.01;56.05
44044;BME280;29709;52.396;16.796;2024-03-17T08:51:29;102194.02;;;8.21;54.52
44044;BME280;29709;52.396;16.796;2024-03-17T08:54:47;102204.23;;;8.19;55.14
44044;BME280;29709;52.396;16.796;2024-03-17T08:58:01;102203.20;;;8.09;54.96
44044;BME280;29709;52.396;16.796;2024-03-17T09:01:15;102214.91;;;7.87;56.09
44044;BME280;29709;52.396;16.796;2024-03-17T09:04:29;102221.45;;;7.73;56.54
44044;BME280;29709;52.396;16.796;2024-03-17T09:07:43;102221.11;;;7.41;57.07
44044;BME280;29709;52.396;16.796;2024-03-17T09:10:57;102228.48;;;7.15;56.74
44044;BME280;29709;52.396;16.796;2024-03-17T09:14:10;102231.77;;;6.95;57.82
44044;BME280;29709;52.396;16.796;2024-03-17T09:17:25;102231.43;;;6.87;58.42
44044;BME280;29709;52.396;16.796;2024-03-17T09:20:38;102238.46;;;6.78;58.60
44044;BME280;29709;52.396;16.796;2024-03-17T09:23:51;102239.22;;;6.93;58.87
44044;BME280;29709;52.396;16.796;2024-03-17T09:27:05;102238.09;;;7.08;58.75
44044;BME280;29709;52.396;16.796;2024-03-17T09:30:18;102246.52;;;7.05;57.56
44044;BME280;29709;52.396;16.796;2024-03-17T09:33:33;102236.15;;;7.10;57.69
44044;BME280;29709;52.396;16.796;2024-03-17T09:36:46;102235.02;;;7.26;57.28
44044;BME280;29709;52.396;16.796;2024-03-17T09:40:00;102239.27;;;7.42;57.69
44044;BME280;29709;52.396;16.796;2024-03-17T09:43:14;102240.89;;;7.45;57.04
44044;BME280;29709;52.396;16.796;2024-03-17T09:46:27;102245.05;;;7.38;56.29
44044;BME280;29709;52.396;16.796;2024-03-17T09:49:42;102245.96;;;7.26;57.75
44044;BME280;29709;52.396;16.796;2024-03-17T09:52:55;102246.84;;;7.26;57.47
44044;BME280;29709;52.396;16.796;2024-03-17T09:56:10;102241.37;;;7.26;58.28
44044;BME280;29709;52.396;16.796;2024-03-17T09:59:24;102242.99;;;7.29;57.63
44044;BME280;29709;52.396;16.796;2024-03-17T10:02:47;102252.27;;;7.39;57.23
44044;BME280;29709;52.396;16.796;2024-03-17T10:06:01;102251.95;;;7.43;57.52
44044;BME280;29709;52.396;16.796;2024-03-17T10:09:17;102258.30;;;7.44;56.62
44044;BME280;29709;52.396;16.796;2024-03-17T10:12:34;102252.36;;;7.50;56.41
44044;BME280;29709;52.396;16.796;2024-03-17T10:15:50;102260.88;;;7.58;56.27
44044;BME280;29709;52.396;16.796;2024-03-17T10:19:10;102259.88;;;7.72;56.58
44044;BME280;29709;52.396;16.796;2024-03-17T10:22:24;102261.07;;;7.68;56.50
44044;BME280;29709;52.396;16.796;2024-03-17T10:25:41;102256.34;;;7.83;56.92
44044;BME280;29709;52.396;16.796;2024-03-17T10:28:54;102266.25;;;7.96;56.19
44044;BME280;29709;52.396;16.796;2024-03-17T10:32:14;102263.32;;;7.87;53.93
44044;BME280;29709;52.396;16.796;2024-03-17T10:35:32;102259.64;;;7.75;54.80
44044;BME280;29709;52.396;16.796;2024-03-17T10:38:52;102261.95;;;7.68;54.40
44044;BME280;29709;52.396;16.796;2024-03-17T10:42:11;102261.43;;;7.63;54.31
44044;BME280;29709;52.396;16.796;2024-03-17T10:45:25;102270.39;;;7.65;54.77
44044;BME280;29709;52.396;16.796;2024-03-17T10:48:41;102265.36;;;7.59;54.82
44044;BME280;29709;52.396;16.796;2024-03-17T10:52:07;102267.34;;;7.57;54.80
44044;BME280;29709;52.396;16.796;2024-03-17T10:55:24;102273.05;;;7.54;55.13
44044;BME280;29709;52.396;16.796;2024-03-17T10:58:44;102273.70;;;7.58;55.54
44044;BME280;29709;52.396;16.796;2024-03-17T11:05:30;102281.78;;;7.59;56.40
44044;BME280;29709;52.396;16.796;2024-03-17T11:08:47;102280.23;;;7.68;55.36
44044;BME280;29709;52.396;16.796;2024-03-17T11:12:01;102273.45;;;7.61;55.82
44044;BME280;29709;52.396;16.796;2024-03-17T11:18:42;102281.72;;;7.85;55.91
44044;BME280;29709;52.396;16.796;2024-03-17T11:21:55;102275.49;;;7.83;55.45
44044;BME280;29709;52.396;16.796;2024-03-17T11:35:30;102276.94;;;7.75;55.84
44044;BME280;29709;52.396;16.796;2024-03-17T11:38:53;102277.68;;;7.77;55.88
44044;BME280;29709;52.396;16.796;2024-03-17T11:42:12;102279.48;;;7.66;55.51
44044;BME280;29709;52.396;16.796;2024-03-17T11:45:27;102282.45;;;7.63;56.46
44044;BME280;29709;52.396;16.796;2024-03-17T11:48:40;102286.17;;;7.49;56.88
44044;BME280;29709;52.396;16.796;2024-03-17T11:51:56;102282.60;;;7.36;58.20
44044;BME280;29709;52.396;16.796;2024-03-17T11:55:16;102273.95;;;7.42;57.59
44044;BME280;29709;52.396;16.796;2024-03-17T11:58:30;102279.20;;;7.45;58.02
44044;BME280;29709;52.396;16.796;2024-03-17T12:01:48;102276.42;;;7.58;57.63
44044;BME280;29709;52.396;16.796;2024-03-17T12:05:02;102281.70;;;7.48;56.22
44044;BME280;29709;52.396;16.796;2024-03-17T12:08:21;102277.76;;;7.39;57.05
44044;BME280;29709;52.396;16.796;2024-03-17T12:11:35;102280.18;;;7.44;57.46
44044;BME280;29709;52.396;16.796;2024-03-17T12:14:50;102278.20;;;7.46;57.19
44044;BME280;29709;52.396;16.796;2024-03-17T12:18:04;102286.84;;;7.40;56.51
44044;BME280;29709;52.396;16.796;2024-03-17T12:21:17;102294.18;;;7.39;56.91
44044;BME280;29709;52.396;16.796;2024-03-17T12:24:32;102292.80;;;7.21;56.25
44044;BME280;29709;52.396;16.796;2024-03-17T12:27:47;102289.84;;;7.11;56.82
44044;BME280;29709;52.396;16.796;2024-03-17T12:31:01;102282.74;;;7.09;57.59
44044;BME280;29709;52.396;16.796;2024-03-17T12:34:15;102290.03;;;7.08;56.79
44044;BME280;29709;52.396;16.796;2024-03-17T12:37:28;102287.99;;;6.99;56.83
44044;BME280;29709;52.396;16.796;2024-03-17T12:40:47;102287.01;;;7.00;57.55
44044;BME280;29709;52.396;16.796;2024-03-17T12:44:00;102291.89;;;6.95;58.23
44044;BME280;29709;52.396;16.796;2024-03-17T12:47:17;102301.85;;;6.83;59.35
44044;BME280;29709;52.396;16.796;2024-03-17T12:50:31;102297.55;;;6.66;59.43
44044;BME280;29709;52.396;16.796;2024-03-17T12:53:44;102306.82;;;6.51;59.35
44044;BME280;29709;52.396;16.796;2024-03-17T12:57:06;102309.30;;;6.42;59.43
44044;BME280;29709;52.396;16.796;2024-03-17T13:00:32;102299.14;;;6.44;59.68
44044;BME280;29709;52.396;16.796;2024-03-17T13:03:47;102297.75;;;6.51;59.39
44044;BME280;29709;52.396;16.796;2024-03-17T13:07:11;102297.01;;;6.61;58.46
44044;BME280;29709;52.396;16.796;2024-03-17T13:10:25;102290.68;;;6.74;58.44
44044;BME280;29709;52.396;16.796;2024-03-17T13:13:39;102296.50;;;6.94;57.87
44044;BME280;29709;52.396;16.796;2024-03-17T13:16:52;102289.05;;;6.97;57.66
44044;BME280;29709;52.396;16.796;2024-03-17T13:20:08;102309.81;;;6.86;56.93
44044;BME280;29709;52.396;16.796;2024-03-17T13:23:25;102310.58;;;6.76;58.49
44044;BME280;29709;52.396;16.796;2024-03-17T13:26:38;102305.33;;;6.73;58.46
44044;BME280;29709;52.396;16.796;2024-03-17T13:29:52;102303.01;;;6.66;58.25
44044;BME280;29709;52.396;16.796;2024-03-17T13:33:07;102306.95;;;6.62;57.65
44044;BME280;29709;52.396;16.796;2024-03-17T13:36:24;102301.27;;;6.65;58.67
44044;BME280;29709;52.396;16.796;2024-03-17T13:39:38;102303.25;;;6.76;58.41
44044;BME280;29709;52.396;16.796;2024-03-17T13:42:55;102304.34;;;6.74;57.75
44044;BME280;29709;52.396;16.796;2024-03-17T13:46:08;102312.23;;;6.78;56.90
44044;BME280;29709;52.396;16.796;2024-03-17T13:49:22;102307.07;;;6.74;56.73
44044;BME280;29709;52.396;16.796;2024-03-17T13:52:35;102312.18;;;6.65;55.90
44044;BME280;29709;52.396;16.796;2024-03-17T13:55:48;102309.56;;;6.64;56.17
44044;BME280;29709;52.396;16.796;2024-03-17T13:59:02;102306.54;;;6.69;56.02
44044;BME280;29709;52.396;16.796;2024-03-17T14:02:15;102306.32;;;6.72;56.72
44044;BME280;29709;52.396;16.796;2024-03-17T14:05:28;102322.95;;;6.81;56.36
44044;BME280;29709;52.396;16.796;2024-03-17T14:08:42;102307.42;;;6.82;55.44
44044;BME280;29709;52.396;16.796;2024-03-17T14:11:55;102308.63;;;6.78;54.04
44044;BME280;29709;52.396;16.796;2024-03-17T14:15:11;102318.12;;;6.72;55.70
44044;BME280;29709;52.396;16.796;2024-03-17T14:18:24;102329.80;;;6.74;56.02
44044;BME280;29709;52.396;16.796;2024-03-17T14:21:38;102325.55;;;6.70;56.52
44044;BME280;29709;52.396;16.796;2024-03-17T14:24:51;102327.28;;;6.58;55.53
44044;BME280;29709;52.396;16.796;2024-03-17T14:28:05;102323.42;;;6.48;55.82
44044;BME280;29709;52.396;16.796;2024-03-17T14:31:20;102325.91;;;6.39;56.79
44044;BME280;29709;52.396;16.796;2024-03-17T14:34:33;102317.63;;;6.53;56.92
44044;BME280;29709;52.396;16.796;2024-03-17T14:37:51;102314.90;;;6.53;55.91
44044;BME280;29709;52.396;16.796;2024-03-17T14:41:05;102314.68;;;6.56;56.51
44044;BME280;29709;52.396;16.796;2024-03-17T14:44:19;102306.71;;;6.53;56.57
44044;BME280;29709;52.396;16.796;2024-03-17T14:47:32;102313.55;;;6.46;55.97
44044;BME280;29709;52.396;16.796;2024-03-17T14:50:45;102314.98;;;6.39;56.00
44044;BME280;29709;52.396;16.796;2024-03-17T14:53:59;102318.59;;;6.39;55.88
44044;BME280;29709;52.396;16.796;2024-03-17T14:57:13;102323.35;;;6.35;55.41
44044;BME280;29709;52.396;16.796;2024-03-17T15:00:30;102323.68;;;6.31;55.09
44044;BME280;29709;52.396;16.796;2024-03-17T15:03:44;102319.76;;;6.35;55.58
44044;BME280;29709;52.396;16.796;2024-03-17T15:06:57;102328.20;;;6.45;55.36
44044;BME280;29709;52.396;16.796;2024-03-17T15:10:11;102330.74;;;6.48;55.88
44044;BME280;29709;52.396;16.796;2024-03-17T15:13:34;102335.52;;;6.44;54.92
44044;BME280;29709;52.396;16.796;2024-03-17T15:16:48;102330.67;;;6.35;55.20
44044;BME280;29709;52.396;16.796;2024-03-17T15:20:01;102333.33;;;6.36;55.13
44044;BME280;29709;52.396;16.796;2024-03-17T15:23:29;102339.95;;;6.32;54.47
44044;BME280;29709;52.396;16.796;2024-03-17T15:26:45;102335.44;;;6.19;54.76
44044;BME280;29709;52.396;16.796;2024-03-17T15:29:59;102333.10;;;6.13;54.91
44044;BME280;29709;52.396;16.796;2024-03-17T15:33:13;102337.90;;;6.09;55.13
44044;BME280;29709;52.396;16.796;2024-03-17T15:36:26;102336.43;;;6.03;55.74
44044;BME280;29709;52.396;16.796;2024-03-17T15:39:39;102331.85;;;6.04;55.77
44044;BME280;29709;52.396;16.796;2024-03-17T15:42:53;102337.13;;;6.07;56.14
44044;BME280;29709;52.396;16.796;2024-03-17T15:46:13;102325.89;;;6.12;56.29
44044;BME280;29709;52.396;16.796;2024-03-17T15:49:27;102338.67;;;6.11;56.42
44044;BME280;29709;52.396;16.796;2024-03-17T15:52:41;102344.50;;;6.19;56.56
44044;BME280;29709;52.396;16.796;2024-03-17T15:56:00;102350.17;;;6.16;55.80
44044;BME280;29709;52.396;16.796;2024-03-17T15:59:14;102336.52;;;6.16;56.17
44044;BME280;29709;52.396;16.796;2024-03-17T16:02:34;102349.37;;;6.14;55.88
44044;BME280;29709;52.396;16.796;2024-03-17T16:05:47;102345.21;;;6.08;56.27
44044;BME280;29709;52.396;16.796;2024-03-17T16:09:01;102350.41;;;5.99;55.04
44044;BME280;29709;52.396;16.796;2024-03-17T16:12:15;102352.75;;;5.91;55.61
44044;BME280;29709;52.396;16.796;2024-03-17T16:15:29;102351.17;;;5.87;55.79
44044;BME280;29709;52.396;16.796;2024-03-17T16:18:43;102347.68;;;5.85;55.19
44044;BME280;29709;52.396;16.796;2024-03-17T16:21:58;102357.02;;;5.80;55.79
44044;BME280;29709;52.396;16.796;2024-03-17T16:25:11;102351.10;;;5.74;55.68
44044;BME280;29709;52.396;16.796;2024-03-17T16:28:25;102351.00;;;5.75;55.28
44044;BME280;29709;52.396;16.796;2024-03-17T16:31:39;102354.78;;;5.73;55.78
44044;BME280;29709;52.396;16.796;2024-03-17T16:34:53;102356.46;;;5.75;56.40
44044;BME280;29709;52.396;16.796;2024-03-17T16:38:06;102347.57;;;5.72;56.08
44044;BME280;29709;52.396;16.796;2024-03-17T16:41:21;102348.45;;;5.72;56.21
44044;BME280;29709;52.396;16.796;2024-03-17T16:48:00;102363.66;;;5.76;56.86
44044;BME280;29709;52.396;16.796;2024-03-17T16:51:14;102366.50;;;5.75;56.82
44044;BME280;29709;52.396;16.796;2024-03-17T16:54:34;102365.41;;;5.77;57.10
44044;BME280;29709;52.396;16.796;2024-03-17T16:57:49;102360.83;;;5.78;57.29
44044;BME280;29709;52.396;16.796;2024-03-17T17:01:03;102365.70;;;5.73;57.30
44044;BME280;29709;52.396;16.796;2024-03-17T17:04:18;102374.50;;;5.64;57.15
44044;BME280;29709;52.396;16.796;2024-03-17T17:07:39;102373.33;;;5.54;57.54
44044;BME280;29709;52.396;16.796;2024-03-17T17:10:53;102370.09;;;5.47;57.47
44044;BME280;29709;52.396;16.796;2024-03-17T17:14:06;102364.44;;;5.50;57.75
44044;BME280;29709;52.396;16.796;2024-03-17T17:17:23;102377.20;;;5.49;58.11